Time;durP1;ratioP1;P1;durP2;ratioP2;P2;SDS_P1;SDS_P2;PMS_P1;PMS_P2;Temp;Humidity;BMP_temperature;BMP_pressure;BME280_temperature;BME280_humidity;BME280_pressure;Samples;Min_cycle;Max_cycle;Signal;HPM_P1;HPM_P2
2024/04/13 00:00:10;;;;;;;7.40;3.90;;;;;;;17.32;47.41;100745.58;108181;1251;62836;-65
2024/04/13 00:02:43;;;;;;;8.60;4.20;;;;;;;17.44;47.06;100743.89;108103;1251;73715;-66
2024/04/13 00:05:10;;;;;;;7.30;4.10;;;;;;;17.38;47.04;100744.88;108157;1251;70141;-67
2024/04/13 00:07:37;;;;;;;6.50;4.00;;;;;;;17.31;47.13;100741.38;108049;1251;71472;-66
2024/04/13 00:10:05;;;;;;;11.30;3.90;;;;;;;17.27;47.24;100739.11;108027;1251;61138;-66
2024/04/13 00:12:33;;;;;;;6.40;4.00;;;;;;;17.27;47.21;100737.33;108176;1251;61083;-66
2024/04/13 00:15:00;;;;;;;6.90;3.60;;;;;;;17.41;47.06;100735.70;108059;1252;74862;-66
2024/04/13 00:17:30;;;;;;;4.50;3.50;;;;;;;17.35;47.27;100734.23;108045;1251;70085;-65
2024/04/13 00:19:58;;;;;;;6.80;3.30;;;;;;;17.34;47.38;100730.04;108037;1251;72673;-66
2024/04/13 00:22:25;;;;;;;9.00;3.90;;;;;;;17.45;47.29;100727.30;108277;1251;61235;-66
2024/04/13 00:24:52;;;;;;;7.20;3.90;;;;;;;17.53;47.26;100725.08;108151;1251;61150;-67
2024/04/13 00:27:20;;;;;;;7.20;3.80;;;;;;;17.68;47.13;100723.33;108137;1251;73624;-65
2024/04/13 00:29:47;;;;;;;6.50;4.20;;;;;;;17.60;47.32;100724.13;108170;1251;68967;-66
2024/04/13 00:32:14;;;;;;;4.90;3.80;;;;;;;17.63;47.32;100721.31;108062;1251;72659;-66
2024/04/13 00:34:41;;;;;;;5.40;4.00;;;;;;;17.57;47.48;100719.17;108044;1254;61216;-66
2024/04/13 00:37:09;;;;;;;12.60;4.30;;;;;;;17.70;47.22;100720.36;108057;1251;61045;-67
2024/04/13 00:39:36;;;;;;;6.10;4.00;;;;;;;17.81;47.04;100715.70;108080;1257;74692;-66
2024/04/13 00:42:05;;;;;;;7.70;4.30;;;;;;;17.78;47.10;100716.37;108132;1251;70145;-67
2024/04/13 00:44:32;;;;;;;11.50;3.90;;;;;;;17.86;46.88;100712.57;108162;1251;73181;-66
2024/04/13 00:47:05;;;;;;;5.80;4.10;;;;;;;17.95;46.84;100714.03;108067;1251;60979;-66
2024/04/13 00:49:33;;;;;;;7.80;4.50;;;;;;;18.05;46.75;100716.78;108196;1251;61212;-65
2024/04/13 00:52:00;;;;;;;6.30;3.90;;;;;;;18.09;46.69;100715.83;108245;1251;73428;-66
2024/04/13 00:54:28;;;;;;;4.90;3.70;;;;;;;18.14;46.58;100718.19;108140;1251;70132;-65
2024/04/13 00:56:56;;;;;;;7.30;3.60;;;;;;;18.18;46.52;100716.35;108136;1254;72492;-66
2024/04/13 00:59:23;;;;;;;6.20;3.40;;;;;;;18.26;46.43;100715.22;108170;1251;62005;-67
2024/04/13 01:01:52;;;;;;;8.10;3.80;;;;;;;18.35;46.27;100708.80;108205;1251;61077;-66
2024/04/13 01:04:21;;;;;;;6.30;3.70;;;;;;;18.32;46.31;100712.69;108060;1251;73682;-67
2024/04/13 01:06:49;;;;;;;4.70;3.30;;;;;;;18.41;46.23;100707.69;108231;1251;68561;-66
2024/04/13 01:09:16;;;;;;;5.20;3.10;;;;;;;18.58;45.86;100700.95;108206;1251;73138;-67
2024/04/13 01:11:43;;;;;;;5.90;3.50;;;;;;;18.39;46.22;100701.97;108190;1254;60999;-66
2024/04/13 01:14:11;;;;;;;7.20;3.80;;;;;;;18.42;46.20;100693.96;108008;1251;61035;-65
2024/04/13 01:16:38;;;;;;;6.70;3.50;;;;;;;18.49;46.03;100696.73;108036;1251;74666;-65
2024/04/13 01:19:07;;;;;;;6.00;3.40;;;;;;;18.47;46.04;100692.59;108134;1251;68904;-66
2024/04/13 01:21:34;;;;;;;5.10;3.80;;;;;;;18.36;46.27;100690.25;108179;1251;72710;-66
2024/04/13 01:24:04;;;;;;;5.10;3.60;;;;;;;18.42;46.16;100687.18;108149;1254;60416;-66
2024/04/13 01:26:37;;;;;;;6.20;3.50;;;;;;;18.37;46.35;100690.73;108219;1254;61218;-66
2024/04/13 01:29:05;;;;;;;6.30;3.40;;;;;;;18.34;46.50;100685.20;108155;1251;74636;-66
2024/04/13 01:31:37;;;;;;;7.80;3.10;;;;;;;18.47;46.17;100685.84;108017;1251;68732;-66
2024/04/13 01:34:04;;;;;;;6.80;3.10;;;;;;;18.40;46.36;100683.76;108142;1251;71489;-66
2024/04/13 01:36:39;;;;;;;6.50;3.40;;;;;;;18.40;46.40;100686.82;108074;1251;61100;-66
2024/04/13 01:39:11;;;;;;;6.20;3.30;;;;;;;18.55;46.02;100681.05;108023;1251;61110;-67
2024/04/13 01:41:45;;;;;;;6.60;3.60;;;;;;;18.70;45.75;100685.67;108059;1251;74581;-66
2024/04/13 01:44:12;;;;;;;6.60;3.70;;;;;;;18.80;45.49;100684.16;108043;1251;71018;-65
2024/04/13 01:46:39;;;;;;;6.30;3.40;;;;;;;18.84;45.30;100688.17;108028;1251;72097;-66
2024/04/13 01:49:07;;;;;;;4.90;3.50;;;;;;;18.95;45.08;100687.86;108033;1254;60501;-64
2024/04/13 01:51:34;;;;;;;12.60;3.50;;;;;;;19.02;44.92;100685.80;108077;1251;60986;-65
2024/04/13 01:54:02;;;;;;;6.60;3.20;;;;;;;19.04;44.87;100674.48;108030;1251;73139;-65
2024/04/13 01:56:29;;;;;;;9.80;3.80;;;;;;;18.99;44.91;100666.24;108055;1251;69941;-66
2024/04/13 01:58:57;;;;;;;5.90;3.30;;;;;;;19.07;44.73;100669.15;108286;1253;71271;-65
2024/04/13 02:01:25;;;;;;;5.80;2.80;;;;;;;18.90;45.04;100672.68;108058;1257;61138;-65
2024/04/13 02:03:52;;;;;;;7.00;3.60;;;;;;;18.92;44.99;100667.95;108072;1257;60244;-66
2024/04/13 02:06:19;;;;;;;5.60;3.60;;;;;;;19.03;44.80;100661.02;108099;1257;74616;-66
2024/04/13 02:08:47;;;;;;;6.70;3.50;;;;;;;19.08;44.62;100659.84;108081;1251;69987;-65
2024/04/13 02:11:14;;;;;;;4.60;3.00;;;;;;;19.01;44.75;100655.27;108033;1256;72648;-66
2024/04/13 02:13:41;;;;;;;4.30;2.90;;;;;;;19.06;44.65;100658.16;108051;1251;61671;-67
2024/04/13 02:16:09;;;;;;;4.50;2.90;;;;;;;19.12;44.58;100654.73;108120;1251;61232;-64
2024/04/13 02:18:37;;;;;;;3.20;2.80;;;;;;;19.13;44.61;100656.48;108283;1253;72995;-66
2024/04/13 02:21:05;;;;;;;5.80;3.20;;;;;;;19.02;44.72;100654.52;108073;1251;68412;-64
2024/04/13 02:23:35;;;;;;;7.10;2.90;;;;;;;18.98;44.80;100657.05;108246;1254;70274;-66
2024/04/13 02:26:02;;;;;;;7.50;3.30;;;;;;;18.88;44.88;100654.67;108017;1253;61723;-66
2024/04/13 02:28:30;;;;;;;9.40;3.20;;;;;;;18.90;44.83;100651.55;108183;1251;61266;-65
2024/04/13 02:30:57;;;;;;;6.30;2.60;;;;;;;18.95;44.78;100654.05;108136;1251;73449;-65
2024/04/13 02:33:24;;;;;;;6.00;2.90;;;;;;;18.95;44.70;100653.01;108128;1251;67727;-66
2024/04/13 02:36:02;;;;;;;7.40;3.00;;;;;;;18.97;44.65;100655.02;108046;1253;72464;-66
2024/04/13 02:38:31;;;;;;;5.40;3.20;;;;;;;18.99;44.63;100652.36;108019;1254;61128;-66
2024/04/13 02:40:59;;;;;;;4.40;3.20;;;;;;;19.17;44.37;100648.76;108003;1253;61124;-66
2024/04/13 02:43:30;;;;;;;5.40;3.20;;;;;;;19.11;44.39;100646.42;108082;1253;74698;-66
2024/04/13 02:46:08;;;;;;;4.50;3.20;;;;;;;18.92;44.80;100647.15;108050;1253;70050;-67
2024/04/13 02:48:41;;;;;;;6.40;3.00;;;;;;;19.02;44.53;100646.83;108119;1254;72733;-66
2024/04/13 02:51:10;;;;;;;4.80;2.70;;;;;;;19.14;44.27;100646.80;108116;1253;61106;-67
2024/04/13 02:53:37;;;;;;;6.00;3.40;;;;;;;19.16;44.28;100650.77;107921;1254;225437;-66
2024/04/13 02:57:30;;;;;;;5.10;3.30;;;;;;;19.06;45.33;100643.11;104762;1291;601096;-66
2024/04/13 02:59:57;;;;;;;4.30;3.20;;;;;;;20.39;42.22;100638.67;107173;1265;60343;-66
2024/04/13 03:02:24;;;;;;;4.20;2.90;;;;;;;20.24;42.22;100644.34;107174;1266;59638;-66
2024/04/13 03:04:52;;;;;;;7.60;3.50;;;;;;;20.04;42.45;100646.39;107191;1266;71754;-66
2024/04/13 03:07:19;;;;;;;3.60;2.90;;;;;;;19.70;43.00;100649.59;107147;1266;70534;-66
2024/04/13 03:09:48;;;;;;;8.20;3.40;;;;;;;19.63;43.14;100648.21;107270;1265;72499;-66
2024/04/13 03:12:15;;;;;;;5.20;3.40;;;;;;;19.46;43.39;100655.21;107152;1268;182228;-65
2024/04/13 03:14:43;;;;;;;7.80;3.40;;;;;;;19.35;43.70;100654.85;107338;1263;60534;-66
2024/04/13 03:17:10;;;;;;;6.50;3.60;;;;;;;19.36;43.74;100650.73;107519;1259;72354;-65
2024/04/13 03:19:38;;;;;;;5.30;3.60;;;;;;;19.19;43.99;100648.81;107535;1259;70286;-64
2024/04/13 03:22:06;;;;;;;7.80;3.60;;;;;;;19.12;44.22;100649.98;107587;1263;72698;-64
2024/04/13 03:24:34;;;;;;;5.20;3.50;;;;;;;19.27;43.95;100647.91;107508;1261;60785;-66
2024/04/13 03:27:02;;;;;;;4.90;2.60;;;;;;;19.33;43.68;100646.98;107589;1259;60307;-66
2024/04/13 03:29:30;;;;;;;6.30;3.50;;;;;;;19.34;43.75;100647.30;107585;1258;73845;-66
2024/04/13 03:31:57;;;;;;;9.40;3.70;;;;;;;19.35;43.77;100648.31;107561;1259;70528;-67
2024/04/13 03:34:26;;;;;;;4.00;2.80;;;;;;;19.33;43.76;100643.41;107554;1259;73043;-66
2024/04/13 03:36:54;;;;;;;7.50;3.80;;;;;;;19.45;43.60;100647.42;107466;1260;60448;-65
2024/04/13 03:39:21;;;;;;;6.50;3.40;;;;;;;19.25;43.89;100646.42;107488;1259;60362;-67
2024/04/13 03:41:49;;;;;;;4.20;3.30;;;;;;;19.28;43.92;100641.64;107516;1258;73763;-67
2024/04/13 03:44:16;;;;;;;7.00;3.60;;;;;;;19.30;43.83;100642.90;107486;1259;68877;-66
2024/04/13 03:46:44;;;;;;;5.00;3.80;;;;;;;19.26;43.96;100640.86;107466;1265;72423;-64
2024/04/13 03:49:11;;;;;;;8.40;4.10;;;;;;;19.35;43.85;100643.30;107482;1261;61716;-66
2024/04/13 03:51:39;;;;;;;7.20;3.30;;;;;;;19.35;43.89;100640.59;107473;1259;60216;-63
2024/04/13 03:54:06;;;;;;;4.90;3.30;;;;;;;19.34;43.95;100641.94;107473;1262;74282;-65
2024/04/13 03:56:34;;;;;;;5.70;3.50;;;;;;;19.34;43.92;100638.16;107470;1265;69902;-66
2024/04/13 03:59:02;;;;;;;7.40;2.90;;;;;;;19.22;44.21;100643.27;107473;1259;70481;-65
2024/04/13 04:01:30;;;;;;;6.10;3.40;;;;;;;19.20;44.19;100640.52;107424;1260;61739;-66
2024/04/13 04:03:57;;;;;;;6.70;3.00;;;;;;;19.30;44.11;100643.80;107470;1259;59554;-67
2024/04/13 04:06:24;;;;;;;5.90;3.50;;;;;;;19.29;43.93;100638.50;107499;1259;72697;-67
2024/04/13 04:08:53;;;;;;;6.50;3.20;;;;;;;19.38;43.95;100638.11;107485;1259;68695;-68
2024/04/13 04:11:21;;;;;;;4.40;3.10;;;;;;;19.51;43.64;100633.86;107465;1259;72364;-67
2024/04/13 04:13:48;;;;;;;7.20;3.60;;;;;;;19.51;43.75;100639.26;107978;1256;60795;-66
2024/04/13 04:16:16;;;;;;;7.10;3.70;;;;;;;19.56;43.61;100635.87;107972;1252;60409;-66
2024/04/13 04:18:43;;;;;;;5.10;3.00;;;;;;;19.53;43.65;100639.79;107989;1258;72991;-66
2024/04/13 04:21:11;;;;;;;9.20;3.50;;;;;;;19.59;43.60;100635.45;108063;1253;70500;-67
2024/04/13 04:23:39;;;;;;;7.00;3.40;;;;;;;19.56;43.47;100636.77;107978;1256;72666;-66
2024/04/13 04:26:06;;;;;;;4.20;2.80;;;;;;;19.68;43.45;100637.20;107973;1253;61664;-67
2024/04/13 04:28:34;;;;;;;5.30;3.30;;;;;;;19.83;43.17;100640.13;107960;1254;60442;-66
2024/04/13 04:31:12;;;;;;;5.80;3.10;;;;;;;19.99;42.92;100640.34;108018;1253;72563;-66
2024/04/13 04:33:39;;;;;;;5.90;3.50;;;;;;;19.99;42.93;100640.34;108041;1253;70676;-67
2024/04/13 04:36:08;;;;;;;5.20;3.40;;;;;;;19.93;42.77;100640.38;107968;1258;72783;-66
2024/04/13 04:38:36;;;;;;;5.60;3.50;;;;;;;20.04;42.66;100638.39;107964;1253;60965;-67
2024/04/13 04:41:04;;;;;;;5.20;3.20;;;;;;;20.10;42.62;100642.91;108099;1253;60294;-67
2024/04/13 04:43:31;;;;;;;7.90;3.90;;;;;;;20.16;42.54;100638.97;107970;1258;73870;-67
2024/04/13 04:45:59;;;;;;;6.00;3.20;;;;;;;20.09;42.65;100638.71;107976;1253;69331;-66
2024/04/13 04:48:26;;;;;;;8.50;3.20;;;;;;;20.23;42.37;100643.98;107974;1254;73132;-67
2024/04/13 04:50:56;;;;;;;5.70;2.90;;;;;;;20.43;41.90;100640.52;107898;1253;60426;-66
2024/04/13 04:53:26;;;;;;;5.70;3.50;;;;;;;20.21;42.32;100647.36;107907;1253;60304;-66
2024/04/13 04:55:54;;;;;;;5.20;3.10;;;;;;;20.45;41.96;100641.95;108006;1253;73813;-66
2024/04/13 04:58:22;;;;;;;7.10;3.30;;;;;;;20.48;41.82;100642.11;107885;1253;69981;-67
2024/04/13 05:00:49;;;;;;;8.60;3.60;;;;;;;20.49;41.76;100642.20;107960;1253;72784;-66
2024/04/13 05:03:18;;;;;;;8.70;3.50;;;;;;;20.63;41.62;100638.86;107928;1253;60373;-66
2024/04/13 05:05:45;;;;;;;7.70;3.20;;;;;;;20.67;41.50;100634.50;107937;1253;59305;-67
2024/04/13 05:08:13;;;;;;;5.50;3.60;;;;;;;20.64;41.33;100633.86;108071;1253;72575;-67
2024/04/13 05:10:40;;;;;;;6.60;3.20;;;;;;;20.59;41.49;100629.90;108102;1253;68732;-67
2024/04/13 05:13:08;;;;;;;9.40;3.50;;;;;;;20.84;41.14;100632.05;107960;1253;72433;-67
2024/04/13 05:15:35;;;;;;;4.40;3.40;;;;;;;21.01;40.86;100626.69;107946;1253;61630;-66
2024/04/13 05:18:03;;;;;;;4.30;3.10;;;;;;;21.26;40.33;100621.70;107926;1254;60435;-66
2024/04/13 05:20:31;;;;;;;5.90;3.50;;;;;;;21.44;39.93;100618.08;107926;1253;73987;-65
2024/04/13 05:22:58;;;;;;;7.00;2.90;;;;;;;21.41;40.01;100613.66;107908;1253;70373;-65
2024/04/13 05:25:26;;;;;;;6.60;3.20;;;;;;;21.42;40.06;100616.63;107933;1253;71464;-67
2024/04/13 05:27:53;;;;;;;10.40;3.60;;;;;;;21.55;39.95;100612.08;107849;1253;60453;-67
2024/04/13 05:30:20;;;;;;;8.10;3.10;;;;;;;21.72;39.72;100607.75;107950;1254;60454;-67
2024/04/13 05:32:48;;;;;;;8.90;3.40;;;;;;;21.83;39.45;100609.17;107946;1253;73805;-67
2024/04/13 05:35:16;;;;;;;6.80;3.30;;;;;;;21.85;39.14;100606.60;107944;1253;68959;-66
2024/04/13 05:37:46;;;;;;;3.90;2.90;;;;;;;21.81;38.87;100608.11;108042;1253;72763;-66
2024/04/13 05:40:15;;;;;;;5.30;3.00;;;;;;;21.95;38.51;100601.34;108087;1253;61707;-66
2024/04/13 05:42:42;;;;;;;3.70;2.60;;;;;;;21.93;38.57;100597.34;108004;1254;60346;-67
2024/04/13 05:45:10;;;;;;;7.50;3.00;;;;;;;21.98;38.43;100597.70;108146;1253;74312;-66
2024/04/13 05:47:37;;;;;;;9.30;3.20;;;;;;;22.17;38.11;100597.29;107977;1253;68466;-66
2024/04/13 05:50:05;;;;;;;8.20;3.10;;;;;;;22.25;38.11;100593.31;108032;1253;72677;-65
2024/04/13 05:52:32;;;;;;;5.30;2.50;;;;;;;22.27;37.81;100594.42;107974;1253;61827;-66
2024/04/13 05:55:01;;;;;;;4.60;2.90;;;;;;;22.31;37.28;100595.84;107911;1253;60336;-67
2024/04/13 05:57:29;;;;;;;6.50;2.80;;;;;;;22.48;36.99;100594.40;107909;1253;73798;-67
2024/04/13 05:59:57;;;;;;;4.20;2.60;;;;;;;22.53;37.00;100593.59;107880;1252;68094;-67
2024/04/13 06:02:26;;;;;;;5.90;2.70;;;;;;;22.95;35.96;100589.53;108035;1253;71484;-66
2024/04/13 06:04:54;;;;;;;6.60;3.20;;;;;;;23.07;35.92;100589.09;107905;1253;60416;-67
2024/04/13 06:07:21;;;;;;;5.20;2.90;;;;;;;23.15;35.47;100592.67;107940;1253;60152;-66
2024/04/13 06:09:48;;;;;;;5.50;2.80;;;;;;;23.24;35.16;100588.02;108040;1253;74880;-65
2024/04/13 06:12:16;;;;;;;4.70;2.40;;;;;;;23.15;35.44;100591.08;107940;1253;69069;-67
2024/04/13 06:14:47;;;;;;;9.70;3.00;;;;;;;23.30;35.07;100587.52;108015;1253;72762;-67
2024/04/13 06:17:14;;;;;;;4.60;2.50;;;;;;;23.62;35.00;100587.21;108104;1253;60518;-67
2024/04/13 06:19:43;;;;;;;4.80;2.40;;;;;;;23.88;34.41;100581.77;108027;1253;60289;-67
2024/04/13 06:22:11;;;;;;;4.10;2.30;;;;;;;24.24;33.21;100579.37;107981;1253;73877;-67
2024/04/13 06:24:38;;;;;;;4.60;2.30;;;;;;;24.52;32.54;100577.14;108077;1253;68697;-66
2024/04/13 06:27:06;;;;;;;5.20;2.20;;;;;;;24.69;32.05;100575.41;107949;1256;72762;-67
2024/04/13 06:29:33;;;;;;;5.60;2.50;;;;;;;24.84;31.28;100580.75;108056;1253;60301;-67
2024/04/13 06:32:00;;;;;;;7.70;2.60;;;;;;;24.72;31.16;100576.23;107971;1253;60314;-67
2024/04/13 06:34:28;;;;;;;5.10;1.90;;;;;;;24.81;31.05;100574.32;107948;1258;72682;-67
2024/04/13 06:36:57;;;;;;;4.30;2.30;;;;;;;24.95;31.14;100576.21;107951;1253;70749;-66
2024/04/13 06:39:24;;;;;;;6.50;2.20;;;;;;;25.12;30.58;100572.30;107964;1258;72658;-67
2024/04/13 06:41:51;;;;;;;6.40;2.40;;;;;;;25.44;30.16;100569.74;107889;1256;60295;-68
2024/04/13 06:44:19;;;;;;;6.20;2.20;;;;;;;25.66;29.84;100565.75;107902;1253;62354;-66
2024/04/13 06:46:46;;;;;;;3.00;1.90;;;;;;;25.74;29.14;100565.70;107913;1253;73641;-65
2024/04/13 06:49:14;;;;;;;4.10;2.20;;;;;;;25.73;28.89;100559.30;107915;1253;69744;-67
2024/04/13 06:51:41;;;;;;;4.70;2.20;;;;;;;25.79;28.77;100558.02;107875;1254;74118;-66
2024/04/13 06:54:09;;;;;;;4.60;2.00;;;;;;;25.99;28.74;100559.23;107897;1253;60981;-67
2024/04/13 06:56:36;;;;;;;6.70;2.10;;;;;;;26.23;28.83;100558.77;107925;1253;62301;-66
2024/04/13 06:59:03;;;;;;;5.00;2.00;;;;;;;26.54;28.56;100555.38;107900;1253;76082;-68
2024/04/13 07:01:31;;;;;;;5.80;2.10;;;;;;;27.02;27.94;100559.73;107924;1253;72618;-67
2024/04/13 07:03:59;;;;;;;6.90;2.10;;;;;;;27.57;26.85;100555.39;107864;1253;71732;-68
2024/04/13 07:06:26;;;;;;;3.40;1.80;;;;;;;27.83;24.84;100550.05;107889;1254;62336;-68
2024/04/13 07:08:55;;;;;;;3.10;1.40;;;;;;;28.21;24.18;100540.76;107918;1253;61946;-68
2024/04/13 07:11:22;;;;;;;2.80;1.40;;;;;;;28.59;23.28;100535.79;107912;1253;74565;-67
2024/04/13 07:13:50;;;;;;;4.70;1.50;;;;;;;28.75;22.90;100537.37;107936;1253;72607;-67
2024/04/13 07:16:17;;;;;;;5.40;1.80;;;;;;;28.43;22.75;100540.05;107942;1253;71380;-67
2024/04/13 07:18:44;;;;;;;4.90;1.50;;;;;;;28.54;22.76;100541.23;107979;1253;61109;-64
2024/04/13 07:21:12;;;;;;;4.50;1.30;;;;;;;28.69;23.26;100542.89;108043;1252;61531;-66
2024/04/13 07:23:40;;;;;;;3.20;1.40;;;;;;;28.57;22.41;100539.99;108075;1253;73789;-68
2024/04/13 07:26:08;;;;;;;5.10;1.40;;;;;;;28.45;22.83;100541.83;107974;1253;71683;-67
2024/04/13 07:28:35;;;;;;;3.60;1.60;;;;;;;28.39;22.81;100541.77;107955;1253;72881;-68
2024/04/13 07:31:02;;;;;;;5.30;1.50;;;;;;;28.23;22.68;100537.55;107967;1253;60236;-67
2024/04/13 07:33:30;;;;;;;3.90;1.70;;;;;;;28.10;23.66;100542.39;107983;1253;60985;-66
2024/04/13 07:35:57;;;;;;;4.30;1.80;;;;;;;28.09;23.13;100541.75;107986;1253;73295;-67
2024/04/13 07:38:27;;;;;;;5.70;2.10;;;;;;;27.98;23.26;100534.27;107988;1253;69125;-67
2024/04/13 07:40:54;;;;;;;4.10;1.50;;;;;;;28.04;22.95;100528.04;107950;1256;71498;-69
2024/04/13 07:43:22;;;;;;;5.50;1.50;;;;;;;28.25;22.66;100524.45;107930;1253;61338;-66
2024/04/13 07:45:50;;;;;;;2.50;1.30;;;;;;;28.37;22.44;100517.89;107974;1253;61085;-66
2024/04/13 07:48:18;;;;;;;5.80;1.70;;;;;;;28.55;22.68;100526.31;107974;1254;74633;-67
2024/04/13 07:50:45;;;;;;;3.80;1.50;;;;;;;28.64;22.15;100527.70;107932;1258;69266;-67
2024/04/13 07:53:13;;;;;;;3.90;1.60;;;;;;;28.46;22.31;100526.40;107938;1253;72643;-67
2024/04/13 07:55:40;;;;;;;3.20;1.50;;;;;;;28.08;22.33;100522.41;107956;1253;61115;-67
2024/04/13 07:58:07;;;;;;;3.70;1.40;;;;;;;28.01;23.07;100517.54;108061;1253;61318;-67
2024/04/13 08:00:34;;;;;;;7.30;2.10;;;;;;;28.01;22.97;100514.99;108011;1253;73440;-67
2024/04/13 08:03:02;;;;;;;4.00;1.60;;;;;;;28.10;22.80;100510.52;107980;1253;70738;-67
2024/04/13 08:05:29;;;;;;;3.50;1.70;;;;;;;27.82;22.69;100511.55;107960;1257;72723;-67
2024/04/13 08:07:57;;;;;;;4.00;1.70;;;;;;;27.71;23.37;100509.95;107914;1256;61216;-66
2024/04/13 08:10:24;;;;;;;4.50;1.60;;;;;;;27.63;23.32;100510.98;107939;1253;61038;-67
2024/04/13 08:12:51;;;;;;;3.50;1.60;;;;;;;27.62;23.70;100512.72;107930;1254;74781;-67
2024/04/13 08:15:19;;;;;;;4.20;1.50;;;;;;;27.53;23.18;100510.73;107944;1253;70810;-67
2024/04/13 08:17:46;;;;;;;3.50;1.70;;;;;;;27.41;23.45;100512.15;107968;1253;72777;-67
2024/04/13 08:20:14;;;;;;;5.60;1.50;;;;;;;27.46;23.38;100508.95;107984;1253;61135;-67
2024/04/13 08:22:44;;;;;;;8.20;2.00;;;;;;;27.77;23.36;100501.73;107942;1253;61125;-67
2024/04/13 08:25:11;;;;;;;5.30;1.50;;;;;;;28.02;23.27;100499.94;107983;1253;74797;-68
2024/04/13 08:27:39;;;;;;;5.80;1.40;;;;;;;28.48;22.89;100498.63;107978;1254;71450;-67
2024/04/13 08:30:07;;;;;;;3.20;1.60;;;;;;;28.81;22.44;100493.72;107941;1256;73975;-68
2024/04/13 08:32:34;;;;;;;4.20;1.50;;;;;;;28.86;22.43;100488.45;107947;1256;61184;-67
2024/04/13 08:35:02;;;;;;;4.10;1.50;;;;;;;29.04;22.29;100488.52;107929;1258;61085;-67
2024/04/13 08:37:29;;;;;;;7.40;1.80;;;;;;;29.14;22.30;100481.21;107917;1254;77000;-67
2024/04/13 08:39:56;;;;;;;3.80;1.80;;;;;;;29.39;22.16;100476.55;107896;1253;71567;-68
2024/04/13 08:42:34;;;;;;;3.60;1.90;;;;;;;29.62;22.11;100471.66;108164;1254;74985;-67
2024/04/13 08:45:02;;;;;;;5.80;1.90;;;;;;;29.52;22.12;100469.09;108133;1254;61291;-68
2024/04/13 08:47:29;;;;;;;5.00;1.90;;;;;;;29.68;21.98;100463.89;107840;1260;61440;-68
2024/04/13 08:49:58;;;;;;;3.80;1.30;;;;;;;29.58;21.99;100462.50;107927;1253;74337;-67
2024/04/13 08:52:26;;;;;;;6.20;1.90;;;;;;;29.18;22.13;100464.04;108003;1253;72411;-67
2024/04/13 08:54:53;;;;;;;4.40;1.50;;;;;;;28.77;22.64;100475.17;107943;1253;75331;-68
2024/04/13 08:57:25;;;;;;;4.30;1.70;;;;;;;28.87;22.63;100472.44;107870;1257;61234;-67
2024/04/13 08:59:53;;;;;;;5.60;1.70;;;;;;;29.08;22.73;100466.22;107922;1253;61402;-66
2024/04/13 09:02:23;;;;;;;6.60;2.00;;;;;;;29.50;22.37;100468.21;107962;1253;74441;-67
2024/04/13 09:04:50;;;;;;;3.80;1.70;;;;;;;30.04;21.71;100464.48;107992;1253;71518;-67
2024/04/13 09:07:19;;;;;;;4.00;1.60;;;;;;;30.37;21.32;100456.44;107975;1257;73821;-67
2024/04/13 09:09:48;;;;;;;4.90;1.30;;;;;;;30.86;21.26;100452.08;107922;1256;62318;-68
2024/04/13 09:12:16;;;;;;;3.60;1.50;;;;;;;31.52;20.66;100443.77;108031;1253;61083;-66
2024/04/13 09:14:44;;;;;;;5.10;1.60;;;;;;;31.72;20.08;100447.56;107923;1253;76955;-67
2024/04/13 09:17:11;;;;;;;6.00;1.90;;;;;;;31.35;20.14;100442.76;107924;1253;72755;-67
2024/04/13 09:19:39;;;;;;;6.40;1.90;;;;;;;31.26;20.51;100451.93;107886;1258;73682;-67
2024/04/13 09:22:06;;;;;;;4.00;1.50;;;;;;;31.25;20.42;100446.50;107979;1253;62272;-67
2024/04/13 09:24:40;;;;;;;3.10;1.50;;;;;;;31.05;20.76;100434.13;107971;1254;62263;-67
2024/04/13 09:27:18;;;;;;;3.50;1.20;;;;;;;30.70;21.01;100436.11;108023;1255;77302;-67
2024/04/13 09:29:45;;;;;;;9.10;1.70;;;;;;;30.17;21.37;100439.88;107978;1253;72718;-67
2024/04/13 09:32:23;;;;;;;3.60;1.40;;;;;;;30.03;21.77;100435.16;107920;1258;74644;-67
2024/04/13 09:34:51;;;;;;;2.90;1.20;;;;;;;29.82;21.68;100428.24;107931;1253;61111;-67
2024/04/13 09:37:20;;;;;;;3.90;1.30;;;;;;;29.73;22.06;100426.27;108109;1254;61083;-67
2024/04/13 09:39:47;;;;;;;4.30;1.90;;;;;;;29.62;22.09;100418.95;107961;1258;77038;-67
2024/04/13 09:42:17;;;;;;;2.60;1.50;;;;;;;29.30;22.34;100411.17;107885;1258;71289;-67
2024/04/13 09:44:44;;;;;;;2.60;1.40;;;;;;;29.28;22.89;100409.42;107936;1256;75168;-67
2024/04/13 09:47:12;;;;;;;2.80;1.50;;;;;;;29.42;22.90;100402.03;108190;1254;60363;-68
2024/04/13 09:49:40;;;;;;;3.10;1.50;;;;;;;29.64;22.94;100402.54;107982;1253;62197;-66
2024/04/13 09:52:07;;;;;;;2.50;1.40;;;;;;;29.99;22.55;100396.46;107919;1258;77026;-66
2024/04/13 09:54:36;;;;;;;3.60;1.30;;;;;;;30.43;22.26;100390.86;107931;1258;71574;-68
2024/04/13 09:57:04;;;;;;;2.90;1.60;;;;;;;30.35;21.61;100393.80;108098;1256;73754;-68
2024/04/13 09:59:31;;;;;;;3.20;1.60;;;;;;;29.87;21.89;100384.14;107893;1257;61222;-66
2024/04/13 10:01:58;;;;;;;7.70;1.50;;;;;;;29.52;22.40;100375.19;107871;1260;62343;-67
2024/04/13 10:04:26;;;;;;;4.50;1.70;;;;;;;29.23;23.01;100381.41;108000;1253;76668;-67
2024/04/13 10:06:53;;;;;;;5.50;2.00;;;;;;;29.65;22.93;100374.48;107900;1254;72872;-68
2024/04/13 10:09:21;;;;;;;3.50;1.80;;;;;;;30.00;22.50;100379.43;107847;1256;74821;-67
2024/04/13 10:11:51;;;;;;;3.60;1.50;;;;;;;30.28;21.94;100378.33;107879;1254;61260;-68
2024/04/13 10:14:19;;;;;;;6.00;1.60;;;;;;;30.51;21.79;100367.98;107916;1253;61972;-68
2024/04/13 10:16:47;;;;;;;3.50;1.90;;;;;;;30.82;21.56;100369.38;107942;1254;75813;-67
2024/04/13 10:19:14;;;;;;;3.90;1.90;;;;;;;30.77;21.35;100360.12;107955;1260;71392;-65
2024/04/13 10:21:42;;;;;;;3.80;1.70;;;;;;;30.65;21.64;100358.00;107939;1260;73766;-65
2024/04/13 10:24:14;;;;;;;6.90;1.70;;;;;;;30.63;21.72;100361.47;107926;1255;62334;-67
2024/04/13 10:26:41;;;;;;;3.30;1.40;;;;;;;30.70;21.96;100358.67;107931;1254;61007;-67
2024/04/13 10:29:09;;;;;;;4.40;2.00;;;;;;;30.87;21.66;100358.14;107874;1258;76197;-66
2024/04/13 10:31:36;;;;;;;9.10;2.00;;;;;;;30.90;21.37;100348.39;107905;1254;72731;-67
2024/04/13 10:34:04;;;;;;;9.10;1.80;;;;;;;31.04;21.49;100341.59;107931;1258;75019;-67
2024/04/13 10:36:33;;;;;;;4.60;1.60;;;;;;;31.02;21.19;100339.55;107922;1259;61148;-66
2024/04/13 10:39:03;;;;;;;3.00;1.40;;;;;;;30.82;21.35;100343.56;107957;1253;62332;-66
2024/04/13 10:41:35;;;;;;;4.70;1.90;;;;;;;30.52;21.73;100350.33;107949;1253;77014;-67
2024/04/13 10:44:03;;;;;;;3.60;1.70;;;;;;;30.37;22.00;100340.17;107933;1255;72616;-68
2024/04/13 10:46:35;;;;;;;5.00;1.70;;;;;;;30.51;22.05;100340.52;107929;1258;73311;-68
2024/04/13 10:49:03;;;;;;;4.10;1.90;;;;;;;30.64;21.72;100337.52;107919;1254;61191;-68
2024/04/13 10:51:32;;;;;;;3.00;1.50;;;;;;;30.88;21.58;100330.87;107946;1253;61089;-67
2024/04/13 10:54:00;;;;;;;3.70;1.80;;;;;;;31.28;21.15;100328.02;107897;1254;76662;-67
2024/04/13 10:56:28;;;;;;;2.50;1.40;;;;;;;31.50;20.86;100325.02;107943;1254;71423;-67
2024/04/13 10:58:55;;;;;;;3.50;1.50;;;;;;;31.13;21.03;100324.11;107953;1259;73816;-67
2024/04/13 11:01:23;;;;;;;5.10;1.60;;;;;;;30.97;21.43;100321.79;107921;1255;61069;-68
2024/04/13 11:04:01;;;;;;;4.00;1.70;;;;;;;31.16;21.43;100314.48;107952;1256;62517;-67
2024/04/13 11:06:29;;;;;;;5.80;1.80;;;;;;;31.06;20.92;100305.62;107926;1254;73151;-67
2024/04/13 11:08:56;;;;;;;3.50;1.50;;;;;;;31.08;21.21;100309.27;107980;1259;70391;-66
2024/04/13 11:11:27;;;;;;;6.10;2.00;;;;;;;31.29;21.04;100306.40;107977;1259;75080;-66
2024/04/13 11:13:54;;;;;;;4.00;2.00;;;;;;;31.52;20.94;100304.45;108012;1258;62448;-67
2024/04/13 11:16:22;;;;;;;6.30;1.80;;;;;;;31.49;20.75;100302.27;107965;1256;62374;-67
2024/04/13 11:18:49;;;;;;;4.00;1.70;;;;;;;31.33;20.99;100297.47;107966;1259;76081;-67
2024/04/13 11:21:20;;;;;;;3.90;1.90;;;;;;;30.79;21.28;100293.11;108011;1254;71053;-66